Perry Village, Pennsylvania
Current Conditions -  °F | °C
As of 12:56 PM on Friday 24 Oct 2014 (Local Time) from KCXY Reporting Station
Clear Clear  
Wind Chill: 66°   Ceiling: Unl
Heat Index: 66°   Visibility: 10mi
Dew Point: 38°   Wind: 10mph
Humidity: 36%   Direction: 340°NNW
Pressure: 29.91"   Gusts: 21mph
Location:  40.4189°N, 77.1972°W
Report Text: KCXY 241656Z 34009G18KT 10SM CLR 19/03 A2991 RMK AO2 SLP129 T01890033
Loading
Personal Weather Stations






























Interactive Weather Map
Tropical Storm Tracking
New forecast layout! Learn more

10-Day Weather Forecast

Advertisements
Track Severe Weather on mobile